createdAt,value
2018-06-18T00:02:21.389Z,3.37
2018-06-18T00:04:48.504Z,3.77
2018-06-18T00:07:15.605Z,3.50
2018-06-18T00:09:42.794Z,3.50
2018-06-18T00:12:09.893Z,3.70
2018-06-18T00:14:37.020Z,3.40
2018-06-18T00:17:04.121Z,3.63
2018-06-18T00:19:31.277Z,3.60
2018-06-18T00:21:58.376Z,3.60
2018-06-18T00:24:25.464Z,3.37
2018-06-18T00:26:52.564Z,3.20
2018-06-18T00:29:19.804Z,3.27
2018-06-18T00:31:46.950Z,3.47
2018-06-18T00:34:14.021Z,3.40
2018-06-18T00:36:41.146Z,3.47
2018-06-18T00:39:08.612Z,3.83
2018-06-18T00:41:35.744Z,3.60
2018-06-18T00:44:02.840Z,3.50
2018-06-18T00:46:29.933Z,3.30
2018-06-18T00:48:57.025Z,3.30
2018-06-18T00:51:24.110Z,3.67
2018-06-18T00:53:51.205Z,3.10
2018-06-18T00:56:18.370Z,3.40
2018-06-18T00:58:45.656Z,3.30
2018-06-18T01:01:13.209Z,3.30
2018-06-18T01:03:40.305Z,3.50
2018-06-18T01:06:07.729Z,3.60
2018-06-18T01:08:34.896Z,3.53
2018-06-18T01:11:02.352Z,3.47
2018-06-18T01:13:29.455Z,3.70
2018-06-18T01:15:56.795Z,3.20
2018-06-18T01:18:24.033Z,3.83
2018-06-18T01:20:51.153Z,3.50
2018-06-18T01:23:23.068Z,3.57
2018-06-18T01:25:50.161Z,3.50
2018-06-18T01:28:17.325Z,3.83
2018-06-18T01:30:44.425Z,3.30
2018-06-18T01:33:11.534Z,3.70
2018-06-18T01:35:38.665Z,3.90
2018-06-18T01:38:05.761Z,3.60
2018-06-18T01:40:32.871Z,3.13
2018-06-18T01:42:59.984Z,3.33
2018-06-18T01:45:27.084Z,3.60
2018-06-18T01:47:54.181Z,3.50
2018-06-18T01:50:21.297Z,3.37
2018-06-18T01:52:48.416Z,3.77
2018-06-18T01:55:15.544Z,3.60
2018-06-18T01:57:42.637Z,3.30
2018-06-18T02:00:09.805Z,3.50
2018-06-18T02:02:36.897Z,3.30
2018-06-18T02:05:04.165Z,3.47
2018-06-18T02:07:31.280Z,3.40
2018-06-18T02:09:58.378Z,3.53
2018-06-18T02:12:25.506Z,3.70
2018-06-18T02:14:52.817Z,3.50
2018-06-18T02:17:19.925Z,3.60
2018-06-18T02:19:47.344Z,3.67
2018-06-18T02:22:15.128Z,3.40
2018-06-18T02:24:42.306Z,3.80
2018-06-18T02:27:14.831Z,3.73
2018-06-18T02:29:47.331Z,3.80
2018-06-18T02:32:20.106Z,4.10
2018-06-18T02:35:51.034Z,3.57
2018-06-18T02:38:23.682Z,4.00
2018-06-18T02:40:50.785Z,4.10
2018-06-18T02:43:18.509Z,3.57
2018-06-18T02:45:45.989Z,3.30
2018-06-18T02:48:13.245Z,3.57
2018-06-18T02:50:40.986Z,3.70
2018-06-18T02:53:08.080Z,3.60
2018-06-18T02:55:35.348Z,4.47
2018-06-18T02:58:02.521Z,3.57
2018-06-18T03:00:29.612Z,4.10
2018-06-18T03:02:56.802Z,3.60
2018-06-18T03:05:23.901Z,3.70
2018-06-18T03:07:51.682Z,4.10
2018-06-18T03:10:18.788Z,3.90
2018-06-18T03:12:45.957Z,3.40
2018-06-18T03:15:13.049Z,3.73
2018-06-18T03:17:40.158Z,3.87
2018-06-18T03:20:12.713Z,3.50
2018-06-18T03:22:45.203Z,3.37
2018-06-18T03:25:17.742Z,3.93
2018-06-18T03:27:50.450Z,4.20
2018-06-18T03:30:17.545Z,3.67
2018-06-18T03:32:44.676Z,3.80
2018-06-18T03:35:11.972Z,3.53
2018-06-18T03:37:39.061Z,3.70
2018-06-18T03:40:06.366Z,3.77
2018-06-18T03:42:33.487Z,3.80
2018-06-18T03:45:16.812Z,4.00
2018-06-18T03:47:43.900Z,3.80
2018-06-18T03:50:11.187Z,3.70
2018-06-18T03:52:38.265Z,3.87
2018-06-18T03:55:07.361Z,3.50
2018-06-18T03:57:34.449Z,3.83
2018-06-18T04:00:01.540Z,3.70
2018-06-18T04:02:36.352Z,4.10
2018-06-18T04:05:08.930Z,3.50
2018-06-18T04:07:41.392Z,3.93
2018-06-18T04:10:14.093Z,3.50
2018-06-18T04:12:41.196Z,3.83
2018-06-18T04:15:08.387Z,3.80
2018-06-18T04:17:35.473Z,3.80
2018-06-18T04:20:02.601Z,3.50
2018-06-18T04:22:29.690Z,3.43
2018-06-18T04:24:56.818Z,3.70
2018-06-18T04:27:23.880Z,3.70
2018-06-18T04:32:32.111Z,3.70
2018-06-18T04:35:00.237Z,3.83
2018-06-18T04:37:27.348Z,3.73
2018-06-18T04:39:55.071Z,3.57
2018-06-18T04:42:27.656Z,4.10
2018-06-18T04:45:00.449Z,4.00
2018-06-18T04:47:33.016Z,3.90
2018-06-18T04:50:05.649Z,3.93
2018-06-18T04:52:32.781Z,4.17
2018-06-18T04:54:59.869Z,4.10
2018-06-18T04:57:26.976Z,4.00
2018-06-18T05:00:00.823Z,3.80
2018-06-18T05:02:27.944Z,3.80
2018-06-18T05:04:55.073Z,3.80
2018-06-18T05:07:22.396Z,3.83
2018-06-18T05:09:54.261Z,4.00
2018-06-18T05:12:21.363Z,4.20
2018-06-18T05:14:48.464Z,3.67
2018-06-18T05:17:15.625Z,3.90
2018-06-18T05:19:42.717Z,3.93
2018-06-18T05:22:10.048Z,3.97
2018-06-18T05:24:37.182Z,4.00
2018-06-18T05:27:04.948Z,3.93
2018-06-18T05:29:32.029Z,3.67
2018-06-18T05:31:59.141Z,3.63
2018-06-18T05:34:27.488Z,3.70
2018-06-18T05:36:56.885Z,3.70
2018-06-18T05:39:26.118Z,3.80
2018-06-18T05:41:55.967Z,3.70
2018-06-18T05:44:23.109Z,4.20
2018-06-18T05:46:50.237Z,3.90
2018-06-18T05:49:17.434Z,4.27
2018-06-18T05:51:44.908Z,3.60
2018-06-18T05:54:12.184Z,4.00
2018-06-18T05:56:39.380Z,3.60
2018-06-18T05:59:06.529Z,3.70
2018-06-18T06:01:34.885Z,3.80
2018-06-18T06:04:04.256Z,3.80
2018-06-18T06:06:32.973Z,3.63
2018-06-18T06:09:00.189Z,3.50
2018-06-18T06:11:27.268Z,3.77
2018-06-18T06:13:54.372Z,3.07
2018-06-18T06:16:21.576Z,3.43
2018-06-18T06:18:48.742Z,3.70
2018-06-18T06:21:15.894Z,3.20
2018-06-18T06:23:43.560Z,3.00
2018-06-18T06:26:10.660Z,3.77
2018-06-18T06:28:37.756Z,3.50
2018-06-18T06:31:04.858Z,3.73
2018-06-18T06:33:31.946Z,3.47
2018-06-18T06:35:59.473Z,3.40
2018-06-18T06:38:26.578Z,3.63
2018-06-18T06:40:53.765Z,3.37
2018-06-18T06:43:20.907Z,3.50
2018-06-18T06:45:47.994Z,3.33
2018-06-18T06:48:15.081Z,3.40
2018-06-18T06:50:42.181Z,3.40
2018-06-18T06:53:09.272Z,3.40
2018-06-18T06:55:36.461Z,3.00
2018-06-18T06:58:03.557Z,2.87
2018-06-18T07:00:30.809Z,3.60
2018-06-18T07:02:57.946Z,3.47
2018-06-18T07:05:25.086Z,3.57
2018-06-18T07:07:52.185Z,3.37
2018-06-18T07:10:19.281Z,3.10
2018-06-18T07:12:46.380Z,3.30
2018-06-18T07:15:13.502Z,3.20
2018-06-18T07:17:40.879Z,3.03
2018-06-18T07:20:07.985Z,3.33
2018-06-18T07:22:35.103Z,3.40
2018-06-18T07:25:02.194Z,3.20
2018-06-18T07:27:29.328Z,3.47
2018-06-18T07:29:56.409Z,3.93
2018-06-18T07:32:23.725Z,3.57
2018-06-18T07:34:50.881Z,3.17
2018-06-18T07:37:17.992Z,3.27
2018-06-18T07:39:45.105Z,3.30
2018-06-18T07:42:12.201Z,2.93
2018-06-18T07:44:39.302Z,2.87
2018-06-18T07:47:06.449Z,3.23
2018-06-18T07:49:33.691Z,2.93
2018-06-18T07:52:00.809Z,2.80
2018-06-18T07:54:27.905Z,3.17
2018-06-18T07:56:55.035Z,3.20
2018-06-18T07:59:22.145Z,3.17
2018-06-18T08:01:49.278Z,3.10
2018-06-18T08:04:16.361Z,3.03
2018-06-18T08:06:43.448Z,2.83
2018-06-18T08:09:12.609Z,2.90
2018-06-18T08:11:39.816Z,3.00
2018-06-18T08:14:06.996Z,3.20
2018-06-18T08:16:34.100Z,2.70
2018-06-18T08:19:01.249Z,3.03
2018-06-18T08:21:28.330Z,2.93
2018-06-18T08:23:55.433Z,2.80
2018-06-18T08:26:22.525Z,2.77
2018-06-18T08:28:49.627Z,3.17
2018-06-18T08:31:16.744Z,3.00
2018-06-18T08:33:43.835Z,2.90
2018-06-18T08:36:10.933Z,2.90
2018-06-18T08:38:38.380Z,2.80
2018-06-18T08:41:05.540Z,3.07
2018-06-18T08:43:32.612Z,3.13
2018-06-18T08:45:59.721Z,2.73
2018-06-18T08:48:32.397Z,3.10
2018-06-18T08:51:04.939Z,2.73
2018-06-18T08:53:37.571Z,3.20
2018-06-18T08:56:10.050Z,2.67
2018-06-18T08:58:42.684Z,2.90
2018-06-18T09:01:13.961Z,3.17
2018-06-18T09:03:46.424Z,3.03
2018-06-18T09:06:13.523Z,3.53
2018-06-18T09:08:46.203Z,3.17
2018-06-18T09:11:13.305Z,3.10
2018-06-18T09:13:40.412Z,2.73
2018-06-18T09:16:07.547Z,3.63
2018-06-18T09:18:34.681Z,3.30
2018-06-18T09:21:01.788Z,3.27
2018-06-18T09:23:28.881Z,3.10
2018-06-18T09:25:58.616Z,3.00
2018-06-18T09:28:26.348Z,2.93
2018-06-18T09:30:53.554Z,3.20
2018-06-18T09:33:20.646Z,3.10
2018-06-18T09:35:47.743Z,2.90
2018-06-18T09:38:14.833Z,3.00
2018-06-18T09:40:41.929Z,2.80
2018-06-18T09:43:09.101Z,3.10
2018-06-18T09:45:36.229Z,2.87
2018-06-18T09:48:03.432Z,3.10
2018-06-18T09:50:35.860Z,2.80
2018-06-18T09:53:08.386Z,3.07
2018-06-18T09:55:41.142Z,3.20
2018-06-18T09:59:15.184Z,3.00
2018-06-18T10:01:42.285Z,3.00
2018-06-18T10:04:09.395Z,3.20
2018-06-18T10:06:37.017Z,2.90
2018-06-18T10:09:06.465Z,2.80
2018-06-18T10:11:34.128Z,3.20
2018-06-18T10:14:01.420Z,2.60
2018-06-18T10:16:28.509Z,3.17
2018-06-18T10:18:55.823Z,2.70
2018-06-18T10:21:22.977Z,2.90
2018-06-18T10:23:50.086Z,2.90
2018-06-18T10:26:17.180Z,2.70
2018-06-18T10:28:44.269Z,2.90
2018-06-18T10:31:11.377Z,2.73
2018-06-18T10:33:43.726Z,3.20
2018-06-18T10:36:16.364Z,2.70
2018-06-18T10:38:48.806Z,2.80
2018-06-18T10:41:21.325Z,3.20
2018-06-18T10:43:48.422Z,2.63
2018-06-18T10:46:15.576Z,2.67
2018-06-18T10:48:42.753Z,2.87
2018-06-18T10:51:09.910Z,2.80
2018-06-18T10:53:36.999Z,2.60
2018-06-18T10:56:04.110Z,2.50
2018-06-18T10:58:31.202Z,2.50
2018-06-18T11:01:02.319Z,2.80
2018-06-18T11:03:29.405Z,2.40
2018-06-18T11:06:02.029Z,2.67
2018-06-18T11:08:29.113Z,2.80
2018-06-18T11:10:56.245Z,2.20
2018-06-18T11:13:23.361Z,2.07
2018-06-18T11:15:50.523Z,2.40
2018-06-18T11:18:23.102Z,2.20
2018-06-18T11:20:55.743Z,2.40
2018-06-18T11:23:28.241Z,2.57
2018-06-18T11:26:00.724Z,2.57
2018-06-18T11:28:27.903Z,2.60
2018-06-18T11:30:54.974Z,2.83
2018-06-18T11:33:22.098Z,2.63
2018-06-18T11:35:49.308Z,3.00
2018-06-18T11:38:16.412Z,2.50
2018-06-18T11:40:43.511Z,2.70
2018-06-18T11:43:10.608Z,2.50
2018-06-18T11:45:37.800Z,2.20
2018-06-18T11:48:14.177Z,2.80
2018-06-18T11:50:41.248Z,2.60
2018-06-18T11:53:08.347Z,2.70
2018-06-18T11:55:35.896Z,2.80
2018-06-18T11:58:02.998Z,2.60
2018-06-18T12:00:35.783Z,2.60
2018-06-18T12:03:08.509Z,2.77
2018-06-18T12:05:41.055Z,2.83
2018-06-18T12:08:13.627Z,2.50
2018-06-18T12:10:40.749Z,2.60
2018-06-18T12:13:08.356Z,2.60
2018-06-18T12:15:35.463Z,2.90
2018-06-18T12:18:02.574Z,2.80
2018-06-18T12:20:29.696Z,2.87
2018-06-18T12:22:56.781Z,2.93
2018-06-18T12:25:24.198Z,2.90
2018-06-18T12:27:51.297Z,2.77
2018-06-18T12:30:18.457Z,2.97
2018-06-18T12:32:45.537Z,2.60
2018-06-18T12:35:12.656Z,3.00
2018-06-18T12:37:39.869Z,2.73
2018-06-18T12:40:06.982Z,2.60
2018-06-18T12:42:34.080Z,2.50
2018-06-18T12:45:06.643Z,2.80
2018-06-18T12:47:39.325Z,2.70
2018-06-18T12:50:11.665Z,2.60
2018-06-18T12:52:44.130Z,2.13
2018-06-18T12:55:16.584Z,2.70
2018-06-18T13:00:16.405Z,1.90
2018-06-18T13:02:45.021Z,2.10
2018-06-18T13:05:12.117Z,2.07
2018-06-18T13:07:39.246Z,1.90
2018-06-18T13:10:06.516Z,1.77
2018-06-18T13:12:33.623Z,1.70
2018-06-18T13:15:00.722Z,2.03
2018-06-18T13:17:27.809Z,2.10
2018-06-18T13:19:54.909Z,1.83
2018-06-18T13:22:22.017Z,1.80
2018-06-18T13:24:49.117Z,2.07
2018-06-18T13:27:16.209Z,2.17
2018-06-18T13:29:43.415Z,2.00
2018-06-18T13:32:10.573Z,2.10
2018-06-18T13:34:37.677Z,2.03
2018-06-18T13:37:10.388Z,1.93
2018-06-18T13:39:42.989Z,1.83
2018-06-18T13:42:15.635Z,2.00
2018-06-18T13:44:48.172Z,2.10
2018-06-18T13:47:20.662Z,1.90
2018-06-18T13:49:52.833Z,2.00
2018-06-18T13:52:19.937Z,2.20
2018-06-18T13:54:47.089Z,1.93
2018-06-18T13:57:14.186Z,1.80
2018-06-18T13:59:41.325Z,2.07
2018-06-18T14:02:08.427Z,2.00
2018-06-18T14:04:35.572Z,1.80
2018-06-18T14:07:02.726Z,1.90
2018-06-18T14:09:30.236Z,2.20
2018-06-18T14:11:57.360Z,2.33
2018-06-18T14:14:24.518Z,2.30
2018-06-18T14:16:51.609Z,2.20
2018-06-18T14:19:24.215Z,2.30
2018-06-18T14:21:51.321Z,2.00
2018-06-18T14:24:18.484Z,2.43
2018-06-18T14:26:45.721Z,2.03
2018-06-18T14:29:18.111Z,2.40
2018-06-18T14:31:50.756Z,2.20
2018-06-18T14:34:23.393Z,2.67
2018-06-18T14:37:58.861Z,2.30
2018-06-18T14:40:25.964Z,2.57
2018-06-18T14:42:53.061Z,2.60
2018-06-18T14:45:20.155Z,2.40
2018-06-18T14:47:47.257Z,2.50
2018-06-18T14:50:14.329Z,2.77
2018-06-18T14:52:41.476Z,2.80
2018-06-18T14:55:09.192Z,2.60
2018-06-18T14:57:36.322Z,2.50
2018-06-18T15:00:09.062Z,2.57
2018-06-18T15:02:36.227Z,2.30
2018-06-18T15:05:03.355Z,2.47
2018-06-18T15:07:30.640Z,2.23
2018-06-18T15:09:57.654Z,2.67
2018-06-18T15:12:25.334Z,2.43
2018-06-18T15:14:58.150Z,2.60
2018-06-18T15:17:25.348Z,2.73
2018-06-18T15:19:52.446Z,2.40
2018-06-18T15:22:19.560Z,2.40
2018-06-18T15:24:52.893Z,2.33
2018-06-18T15:27:20.281Z,2.60
2018-06-18T15:29:47.498Z,2.60
2018-06-18T15:32:14.658Z,2.07
2018-06-18T15:34:41.768Z,2.60
2018-06-18T15:37:08.866Z,2.50
2018-06-18T15:39:35.973Z,2.50
2018-06-18T15:42:03.077Z,2.50
2018-06-18T15:44:30.284Z,3.10
2018-06-18T15:46:57.378Z,2.37
2018-06-18T15:49:24.466Z,2.53
2018-06-18T15:51:51.561Z,2.70
2018-06-18T15:54:18.666Z,2.80
2018-06-18T15:56:45.876Z,2.57
2018-06-18T15:59:12.906Z,2.83
2018-06-18T16:01:40.019Z,2.80
2018-06-18T16:04:07.109Z,3.10
2018-06-18T16:06:34.537Z,2.90
2018-06-18T16:09:01.872Z,3.10
2018-06-18T16:11:28.888Z,2.70
2018-06-18T16:13:56.019Z,3.20
2018-06-18T16:16:23.108Z,2.97
2018-06-18T16:18:50.230Z,3.13
2018-06-18T16:21:17.321Z,3.00
2018-06-18T16:23:44.487Z,2.87
2018-06-18T16:26:11.595Z,2.50
2018-06-18T16:28:38.702Z,2.90
2018-06-18T16:31:05.938Z,2.90
2018-06-18T16:33:33.064Z,3.07
2018-06-18T16:36:00.288Z,2.60
2018-06-18T16:38:27.405Z,3.27
2018-06-18T16:40:54.635Z,3.20
2018-06-18T16:43:21.756Z,2.70
2018-06-18T16:45:48.855Z,3.10
2018-06-18T16:48:15.961Z,2.90
2018-06-18T16:50:43.080Z,3.07
2018-06-18T16:53:10.180Z,3.13
2018-06-18T16:55:37.280Z,3.10
2018-06-18T16:58:04.403Z,3.20
2018-06-18T17:00:31.526Z,2.93
2018-06-18T17:02:58.681Z,3.00
2018-06-18T17:05:25.785Z,2.90
2018-06-18T17:07:52.888Z,3.23
2018-06-18T17:10:19.986Z,3.00
2018-06-18T17:12:47.092Z,2.97
2018-06-18T17:15:14.221Z,3.30
2018-06-18T17:17:41.392Z,3.50
2018-06-18T17:20:08.793Z,3.33
2018-06-18T17:22:36.123Z,3.30
2018-06-18T17:25:03.245Z,3.20
2018-06-18T17:27:30.372Z,3.40
2018-06-18T17:29:57.484Z,3.30
2018-06-18T17:32:24.605Z,3.20
2018-06-18T17:34:51.769Z,3.43
2018-06-18T17:37:18.884Z,3.10
2018-06-18T17:39:45.981Z,3.63
2018-06-18T17:42:13.065Z,3.00
2018-06-18T17:44:40.185Z,3.20
2018-06-18T17:47:07.392Z,3.20
2018-06-18T17:49:34.485Z,2.90
2018-06-18T17:52:01.591Z,2.90
2018-06-18T17:54:28.691Z,3.17
2018-06-18T17:56:55.794Z,2.80
2018-06-18T17:59:22.956Z,2.30
2018-06-18T18:01:50.044Z,2.27
2018-06-18T18:04:17.169Z,2.27
2018-06-18T18:06:44.283Z,2.20
2018-06-18T18:09:11.506Z,2.20
2018-06-18T18:11:38.700Z,2.80
2018-06-18T18:14:05.902Z,2.33
2018-06-18T18:16:34.016Z,1.87
2018-06-18T18:19:01.144Z,2.50
2018-06-18T18:21:28.356Z,2.33
2018-06-18T18:23:55.462Z,2.40
2018-06-18T18:26:22.619Z,2.60
2018-06-18T18:28:49.761Z,2.13
2018-06-18T18:31:16.808Z,2.10
2018-06-18T18:33:44.041Z,2.33
2018-06-18T18:36:11.153Z,2.40
2018-06-18T18:38:38.256Z,2.57
2018-06-18T18:41:05.353Z,2.43
2018-06-18T18:43:32.461Z,2.50
2018-06-18T18:45:59.560Z,2.67
2018-06-18T18:48:26.856Z,2.33
2018-06-18T18:50:53.962Z,2.13
2018-06-18T18:53:21.050Z,2.10
2018-06-18T18:56:01.073Z,2.17
2018-06-18T18:59:38.749Z,2.10
2018-06-18T19:02:05.939Z,2.00
2018-06-18T19:04:37.522Z,2.00
2018-06-18T19:07:05.085Z,2.07
2018-06-18T19:09:36.784Z,2.20
2018-06-18T19:12:04.033Z,2.30
2018-06-18T19:14:31.241Z,2.10
2018-06-18T19:16:58.339Z,2.03
2018-06-18T19:19:26.892Z,2.23
2018-06-18T19:21:53.994Z,2.40
2018-06-18T19:24:21.112Z,2.37
2018-06-18T19:26:48.209Z,2.50
2018-06-18T19:29:15.321Z,2.70
2018-06-18T19:31:42.413Z,2.57
2018-06-18T19:34:10.589Z,2.47
2018-06-18T19:36:38.981Z,2.40
2018-06-18T19:39:07.126Z,2.47
2018-06-18T19:41:34.256Z,3.20
2018-06-18T19:44:01.443Z,3.03
2018-06-18T19:46:30.548Z,2.67
2018-06-18T19:49:03.458Z,2.63
2018-06-18T19:51:30.564Z,3.00
2018-06-18T19:54:01.793Z,3.87
2018-06-18T19:56:32.083Z,3.47
2018-06-18T19:59:04.927Z,3.33
2018-06-18T20:01:32.074Z,2.87
2018-06-18T20:03:59.200Z,2.90
2018-06-18T20:06:26.374Z,2.70
2018-06-18T20:08:53.481Z,3.17
2018-06-18T20:11:20.661Z,3.10
2018-06-18T20:13:47.750Z,2.80
2018-06-18T20:16:14.899Z,2.97
2018-06-18T20:18:45.523Z,2.93
2018-06-18T20:21:12.773Z,2.60
2018-06-18T20:23:39.900Z,2.70
2018-06-18T20:26:08.361Z,3.43
2018-06-18T20:28:35.625Z,3.40
2018-06-18T20:31:02.769Z,2.93
2018-06-18T20:33:30.569Z,3.27
2018-06-18T20:35:58.905Z,3.10
2018-06-18T20:38:26.026Z,3.03
2018-06-18T20:40:53.176Z,3.30
2018-06-18T20:43:20.988Z,3.03
2018-06-18T20:45:48.201Z,2.80
2018-06-18T20:48:15.289Z,3.03
2018-06-18T20:50:42.407Z,2.70
2018-06-18T20:53:09.484Z,3.40
2018-06-18T20:55:36.586Z,3.10
2018-06-18T20:58:03.701Z,3.20
2018-06-18T21:00:30.805Z,3.07
2018-06-18T21:02:57.943Z,3.83
2018-06-18T21:05:25.085Z,3.70
2018-06-18T21:07:52.299Z,3.80
2018-06-18T21:10:19.327Z,3.13
2018-06-18T21:12:46.428Z,3.80
2018-06-18T21:15:13.561Z,3.73
2018-06-18T21:17:40.666Z,3.70
2018-06-18T21:20:07.760Z,3.60
2018-06-18T21:22:34.873Z,4.30
2018-06-18T21:25:02.002Z,4.30
2018-06-18T21:27:29.188Z,4.03
2018-06-18T21:29:56.300Z,3.90
2018-06-18T21:32:23.485Z,3.93
2018-06-18T21:34:50.587Z,3.87
2018-06-18T21:37:17.729Z,4.03
2018-06-18T21:39:44.868Z,4.00
2018-06-18T21:42:12.034Z,3.90
2018-06-18T21:44:44.781Z,3.87
2018-06-18T21:47:12.796Z,3.97
2018-06-18T21:49:40.126Z,3.73
2018-06-18T21:52:07.460Z,3.80
2018-06-18T21:54:34.676Z,3.70
2018-06-18T21:57:01.789Z,4.00
2018-06-18T21:59:29.198Z,4.20
2018-06-18T22:01:56.981Z,4.03
2018-06-18T22:04:24.167Z,4.13
2018-06-18T22:06:51.294Z,3.73
2018-06-18T22:09:19.559Z,3.70
2018-06-18T22:11:48.897Z,4.00
2018-06-18T22:14:15.985Z,3.90
2018-06-18T22:16:43.459Z,4.00
2018-06-18T22:19:10.660Z,4.20
2018-06-18T22:21:38.498Z,3.47
2018-06-18T22:24:05.708Z,3.80
2018-06-18T22:26:32.961Z,4.23
2018-06-18T22:29:00.841Z,3.97
2018-06-18T22:31:28.479Z,4.00
2018-06-18T22:33:55.827Z,3.73
2018-06-18T22:36:22.993Z,3.50
2018-06-18T22:38:50.200Z,3.80
2018-06-18T22:41:17.313Z,3.63
2018-06-18T22:43:44.418Z,4.17
2018-06-18T22:46:11.539Z,4.30
2018-06-18T22:48:38.633Z,4.00
2018-06-18T22:51:05.737Z,4.20
2018-06-18T22:53:32.858Z,4.60
2018-06-18T22:55:59.974Z,4.33
2018-06-18T22:58:27.101Z,4.40
2018-06-18T23:00:54.833Z,3.93
2018-06-18T23:03:21.925Z,4.50
2018-06-18T23:05:49.066Z,4.40
2018-06-18T23:08:16.249Z,4.50
2018-06-18T23:10:43.338Z,4.67
2018-06-18T23:13:10.432Z,4.70
2018-06-18T23:15:37.536Z,4.30
2018-06-18T23:18:04.657Z,4.57
2018-06-18T23:20:31.766Z,4.47
2018-06-18T23:22:58.856Z,4.90
2018-06-18T23:25:25.946Z,4.80
2018-06-18T23:27:53.128Z,5.00
2018-06-18T23:30:20.282Z,4.67
2018-06-18T23:32:47.398Z,4.70
2018-06-18T23:35:14.497Z,4.90
2018-06-18T23:37:41.713Z,5.23
2018-06-18T23:40:08.817Z,5.50
2018-06-18T23:42:36.070Z,4.90
2018-06-18T23:45:03.154Z,4.80
2018-06-18T23:47:30.257Z,5.33
2018-06-18T23:49:57.376Z,5.43
2018-06-18T23:52:24.469Z,5.30
2018-06-18T23:54:51.679Z,5.20
2018-06-18T23:57:18.748Z,5.00
2018-06-18T23:59:46.028Z,4.90
